Data for 04/05/2017

Time Sea-Level Adjusted Pressure Absolute Pressure Temperature Relative Humidity Dew Point   
(mb) (inHg) (mb) (inHg) (C) (F) (%) (C) (F)
00:05 1020 30.12 849 25.07 0.7 33.3 44 -10.3 13.5
00:10 1020 30.12 849 25.07 0.9 33.5 43 -10.4 13.3
00:15 1020 30.12 849 25.07 0.9 33.7 43 -10.4 13.2
00:20 1020 30.12 849 25.07 0.9 33.6 43 -10.3 13.4
00:25 1020 30.12 849 25.07 0.8 33.5 43 -10.5 13.1
00:30 1020 30.12 849 25.07 0.9 33.6 42 -10.6 13
00:35 1020 30.12 849 25.07 1.1 33.9 41 -10.7 12.7
00:40 1020 30.12 849 25.07 1.2 34.2 41 -10.7 12.7
00:45 1020 30.12 849 25.07 1.3 34.3 42 -10.4 13.4
00:50 1020 30.12 849 25.07 0.9 33.6 43 -10.3 13.5
00:55 1020 30.12 849 25.07 0.4 32.8 45 -10.2 13.7
01:00 1020 30.12 849 25.07 0.2 32.4 45 -10.2 13.6
01:05 1020 30.12 849 25.07 0.1 32.3 44 -10.6 12.8
01:10 1020 30.12 849 25.07 0.1 32.2 47 -10 14.1
01:15 1020 30.12 849 25.07 -0.1 31.8 46 -10.4 13.2
01:20 1020 30.12 849 25.07 0.1 32.2 45 -10.4 13.3
01:25 1020 30.12 849 25.07 0.2 32.3 45 -10.5 13.1
01:30 1020 30.12 849 25.07 0.2 32.3 44 -10.7 12.7
01:35 1020 30.12 849 25.07 0.3 32.5 44 -10.7 12.8
01:40 1020 30.12 849 25.07 0.2 32.4 43 -10.9 12.4
01:45 1020 30.12 849 25.07 0.2 32.4 44 -10.6 12.8
01:50 1020 30.12 849 25.07 0 32 44 -10.7 12.7
01:55 1020 30.12 849 25.07 -0.1 31.8 44 -10.9 12.5
02:00 1020 30.12 849 25.07 -0.1 31.8 44 -10.8 12.5
02:05 1020 30.12 849 25.07 -0.2 31.7 44 -10.9 12.3
02:10 1020 30.12 849 25.07 -0.1 31.8 44 -11 12.2
02:15 1020 30.12 849 25.07 0 32.1 42 -11.5 11.3
02:20 1020 30.12 849 25.07 0.2 32.4 42 -11.3 11.6
02:25 1020 30.12 849 25.07 0.1 32.1 42 -11.5 11.3
02:30 1020 30.12 849 25.07 -0.1 31.8 44 -11 12.2
02:35 1020 30.12 849 25.07 -0.1 31.7 41 -11.7 10.9
02:40 1020 30.12 849 25.07 0 32.1 42 -11.4 11.5
02:45 1020 30.12 849 25.07 0.1 32.1 41 -11.6 11.1
02:50 1020 30.12 849 25.07 -0.2 31.7 44 -11 12.2
02:55 1020 30.12 849 25.07 -0.5 31.2 43 -11.7 11
03:00 1020 30.12 849 25.07 -0.1 31.8 41 -11.8 10.7
03:05 1020 30.12 849 25.07 -0.2 31.6 43 -11.4 11.5
03:10 1020 30.12 849 25.07 -0.3 31.5 43 -11.5 11.3
03:15 1020 30.12 849 25.07 -0.2 31.6 42 -11.5 11.2
03:20 1020 30.12 849 25.07 -0.3 31.5 43 -11.5 11.3
03:25 1020 30.12 849 25.07 -0.3 31.5 43 -11.5 11.4
03:30 1020 30.12 849 25.07 -0.3 31.5 43 -11.5 11.3
03:35 1020 30.12 849 25.07 -0.1 31.8 42 -11.6 11.1
03:40 1020 30.12 849 25.07 0.1 32.1 42 -11.3 11.7
03:45 1020 30.12 849 25.07 -0 31.9 42 -11.4 11.5
03:50 1020 30.12 849 25.07 0.2 32.3 42 -11.3 11.6
03:55 1020 30.12 849 25.07 0.4 32.7 39 -11.9 10.6
04:00 1020 30.12 849 25.07 0.5 32.9 41 -11.2 11.8
04:05 1020 30.12 849 25.07 0.3 32.5 43 -10.8 12.6
04:10 1020 30.12 849 25.07 0.3 32.6 42 -11.2 11.8
04:15 1020 30.12 849 25.07 0.5 32.8 37 -12.6 9.4
04:20 1020 30.12 849 25.07 1.4 34.5 39 -11.1 12.1
04:25 1020 30.12 849 25.07 1.4 34.5 36 -12.3 9.9
04:30 1020 30.12 849 25.07 2.1 35.8 36 -11.6 11.1
04:35 1020 30.12 849 25.07 2.3 36.1 36 -11.3 11.7
04:40 1020 30.12 849 25.07 2.3 36.1 39 -10.4 13.2
04:45 1020 30.12 849 25.07 1.8 35.2 40 -10.6 13
04:50 1020 30.12 849 25.07 1.6 34.9 41 -10.3 13.5
04:55 1020 30.12 849 25.07 1.2 34.1 45 -9.4 15.1
05:00 1020 30.12 849 25.07 0.7 33.2 45 -10 14.1
05:05 1020 30.12 849 25.07 0.6 33 46 -9.9 14.2
05:10 1020 30.12 849 25.07 0.8 33.5 40 -11.2 11.8
05:15 1020 30.12 849 25.07 1.8 35.2 37 -11.5 11.2
05:20 1020 30.12 849 25.07 2.1 35.8 37 -11.1 11.9
05:25 1020 30.12 849 25.07 2.2 36 35 -11.7 11
05:30 1020 30.12 849 25.07 2.3 36.2 35 -11.5 11.3
05:35 1020 30.12 849 25.07 2.3 36.1 37 -11 12.2
05:40 1020 30.12 849 25.07 2.2 35.9 38 -10.7 12.8
05:45 1020 30.12 849 25.07 2.1 35.7 40 -10.1 13.9
05:50 1020 30.12 849 25.07 2 35.7 41 -9.9 14.2
05:55 1020 30.12 849 25.07 1.9 35.4 43 -9.4 15.1
06:00 1020 30.12 849 25.07 1.8 35.3 45 -9 15.8
06:05 1020 30.12 849 25.07 1.5 34.8 45 -9.2 15.4
06:10 1020 30.12 849 25.07 1.5 34.8 46 -9 15.8
06:15 1020 30.12 849 25.07 1.8 35.2 45 -9 15.8
06:20 1020 30.12 849 25.07 2.1 35.7 41 -10 14
06:25 1020 30.12 849 25.07 2.5 36.5 39 -10 13.9
06:30 1020 30.12 849 25.07 2.6 36.7 41 -9.5 15
06:35 1020 30.12 849 25.07 2.7 36.9 38 -10.3 13.5
06:40 1020 30.12 849 25.07 2.7 36.8 40 -9.5 14.8
06:45 1020 30.12 849 25.07 2.6 36.6 43 -8.7 16.4
06:50 1020 30.12 849 25.07 2.5 36.5 43 -9 15.9
06:55 1020 30.12 849 25.07 2 35.6 43 -9.4 15.1
07:00 1020 30.12 849 25.07 1.9 35.4 46 -8.7 16.4
07:05 1020 30.12 849 25.07 1.7 35 46 -8.6 16.5
07:10 1020 30.12 849 25.07 1.8 35.3 42 -9.7 14.6
07:15 1020 30.12 849 25.07 2.4 36.3 42 -9.2 15.4
07:20 1020 30.12 849 25.07 2.9 37.2 41 -9 15.8
07:25 1020 30.12 849 25.07 3.3 37.9 37 -10.2 13.6
07:30 1020 30.12 849 25.07 3.8 38.8 33 -10.9 12.4
07:35 1020 30.12 849 25.07 4.2 39.6 31 -11.3 11.6
07:40 1020 30.12 849 25.07 4.7 40.4 32 -10.8 12.5
07:45 1020 30.12 849 25.07 5.1 41.1 31 -10.6 13
07:50 1020 30.12 849 25.07 5.4 41.7 31 -10.4 13.4
07:55 1020 30.12 849 25.07 5.6 42 31 -10.2 13.6
08:00 1020 30.12 849 25.07 5.6 42.1 32 -9.9 14.3
08:05 1020 30.12 849 25.07 5.4 41.7 33 -9.7 14.5
08:10 1020 30.12 849 25.07 5.4 41.6 34 -9.2 15.4
08:15 1020 30.12 849 25.07 5.6 42.1 35 -8.8 16.2
08:20 1020 30.12 849 25.07 5.8 42.5 35 -8.5 16.8
08:25 1020 30.12 849 25.07 6 42.7 34 -8.6 16.5
08:30 1020 30.12 849 25.07 6.1 42.9 32 -9.5 15
08:35 1020 30.12 849 25.07 6.2 43.2 31 -9.6 14.6
08:40 1020 30.12 849 25.07 6.7 44 31 -9.2 15.5
08:45 1020 30.12 849 25.07 6.9 44.4 31 -9.1 15.6
08:50 1020 30.12 849 25.07 7.3 45.1 29 -9.7 14.5
08:55 1020 30.12 849 25.07 8 46.4 29 -9.2 15.4
09:00 1020 30.12 849 25.07 8.4 47.2 28 -9.1 15.7
09:05 1020 30.12 849 25.07 9.1 48.4 26 -9.4 15
09:10 1020 30.12 849 25.07 9.3 48.8 24 -10.5 13.2
09:15 1020 30.12 849 25.07 9 48.1 23 -11 12.2
09:20 1020 30.12 849 25.07 8.8 47.9 22 -11.7 10.9
09:25 1020 30.12 849 25.07 8.5 47.3 25 -10.2 13.6
09:30 1020 30.12 849 25.07 7.6 45.7 25 -11.4 11.5
09:35 1020 30.12 849 25.07 7.5 45.6 25 -11.5 11.3
09:40 1020 30.12 849 25.07 8.4 47.1 24 -11.3 11.7
09:45 1020 30.12 849 25.07 8.9 48 24 -10.5 13.1
09:50 1020 30.12 849 25.07 8.9 48.1 24 -10.4 13.3
09:55 1020 30.12 849 25.07 8.7 47.6 25 -10.4 13.2
10:00 1020 30.12 849 25.07 9.5 49 25 -9.6 14.8
10:05 1020 30.12 849 25.07 9.5 49.1 25 -9.7 14.6
10:10 1020 30.12 849 25.07 9.8 49.6 25 -9.3 15.2
10:15 1020 30.12 849 25.07 10.4 50.6 23 -9.7 14.5
10:20 1020 30.12 849 25.07 10.2 50.3 26 -8.7 16.4
10:25 1020 30.12 849 25.07 10.3 50.6 25 -8.8 16.2
10:30 1020 30.12 849 25.07 10.5 51 24 -9 15.8
10:35 1020 30.12 849 25.07 10.3 50.5 25 -8.8 16.1
10:40 1020 30.12 849 25.07 10.4 50.6 25 -8.7 16.3
10:45 1020 30.12 849 25.07 10.6 51.1 25 -8.7 16.4
10:50 1020 30.12 849 25.07 11 51.8 25 -8.2 17.2
10:55 1020 30.12 849 25.07 11.3 52.4 25 -8 17.5
11:00 1020 30.12 849 25.07 11.2 52.2 27 -7.2 19
11:05 1020 30.12 849 25.07 11.4 52.5 26 -7.4 18.6
11:10 1020 30.12 849 25.07 11.4 52.4 26 -7.3 18.9
11:15 1020 30.12 849 25.07 11.1 52 29 -6.2 20.8
11:20 1020 30.12 849 25.07 11 51.8 28 -6.7 20
11:25 1020 30.12 849 25.07 11.3 52.3 28 -6.3 20.6
11:30 1020 30.12 849 25.07 11.2 52.1 28 -6.4 20.4
11:35 1020 30.12 849 25.07 11.4 52.4 29 -6.2 20.9
11:40 1020 30.12 849 25.07 11.7 53 28 -6.2 20.8
11:45 1020 30.12 849 25.07 11.3 52.4 29 -6 21.2
11:50 1020 30.12 849 25.07 11.9 53.5 27 -6.4 20.5
11:55 1020 30.12 849 25.07 12.6 54.6 27 -6.1 21.1
12:00 1020 30.12 849 25.07 12.5 54.6 28 -5.6 21.9
12:05 1020 30.12 849 25.07 12.6 54.7 27 -5.8 21.5
12:10 1020 30.12 849 25.07 12.7 54.8 27 -5.9 21.3
12:15 1019 30.09 849 25.07 12.4 54.4 27 -5.8 21.6
12:20 1019 30.09 849 25.07 12.7 54.9 26 -6.2 20.8
12:25 1019 30.09 849 25.07 12.6 54.7 26 -6.2 20.8
12:30 1019 30.09 849 25.07 12.6 54.7 26 -6.2 20.9
12:35 1019 30.09 849 25.07 12.3 54.2 27 -6.1 21.1
12:40 1019 30.09 849 25.07 12.2 53.9 26 -6.5 20.3
12:45 1019 30.09 848 25.04 12.8 55.1 26 -6 21.2
12:50 1019 30.09 848 25.04 13.3 55.9 27 -5.4 22.2
12:55 1019 30.09 848 25.04 13.5 56.2 26 -5.8 21.6
13:00 1019 30.09 848 25.04 13.4 56 26 -5.7 21.7
13:05 1019 30.09 848 25.04 13.4 56.2 26 -5.5 22.1
13:10 1019 30.09 848 25.04 13.8 56.9 25 -5.7 21.7
13:15 1019 30.09 848 25.04 14.7 58.4 25 -5.3 22.5
13:20 1019 30.09 848 25.04 14.3 57.7 26 -5 23
13:25 1019 30.09 848 25.04 13.9 57 25 -5.8 21.6
13:30 1019 30.09 848 25.04 13.5 56.3 26 -5.8 21.6
13:35 1019 30.09 848 25.04 13.4 56.2 26 -5.9 21.4
13:40 1019 30.09 848 25.04 14.1 57.4 25 -5.7 21.7
13:45 1019 30.09 848 25.04 14.4 58 25 -5.1 22.9
13:50 1019 30.09 848 25.04 13.6 56.4 28 -4.8 23.4
13:55 1019 30.09 848 25.04 13.3 55.9 27 -5.4 22.3
14:00 1019 30.09 848 25.04 13.3 55.9 27 -5.3 22.4
14:05 1019 30.09 848 25.04 13 55.4 27 -5.4 22.2
14:10 1019 30.09 848 25.04 13.2 55.7 26 -5.7 21.7
14:15 1019 30.09 848 25.04 13.1 55.6 27 -5.4 22.3
14:20 1019 30.09 848 25.04 13 55.4 27 -5.6 22
14:25 1019 30.09 848 25.04 13 55.5 27 -5.3 22.4
14:30 1019 30.09 848 25.04 12.9 55.3 27 -5.5 22
14:35 1019 30.09 848 25.04 13 55.3 27 -5.6 22
14:40 1019 30.09 848 25.04 12.8 55.1 27 -5.5 22.1
14:45 1019 30.09 848 25.04 12.8 55.1 28 -5.4 22.3
14:50 1019 30.09 848 25.04 13.3 55.9 27 -5.4 22.3
14:55 1019 30.09 848 25.04 13.8 56.8 27 -4.8 23.4
15:00 1019 30.09 848 25.04 13.5 56.2 27 -5.2 22.6
15:05 1019 30.09 848 25.04 13.3 55.9 27 -5 22.9
15:10 1019 30.09 848 25.04 13.5 56.2 27 -4.9 23.2
15:15 1019 30.09 848 25.04 13.4 56.2 27 -4.9 23.2
15:20 1019 30.09 848 25.04 13.2 55.8 28 -4.9 23.2
15:25 1019 30.09 848 25.04 13 55.3 28 -5.2 22.7
15:30 1019 30.09 848 25.04 12.9 55.1 28 -5 23.1
15:35 1019 30.09 848 25.04 12.8 55 29 -4.8 23.3
15:40 1019 30.09 848 25.04 12.7 54.9 29 -5 23.1
15:45 1019 30.09 848 25.04 12.6 54.6 29 -5.1 22.8
15:50 1019 30.09 848 25.04 12.5 54.5 29 -5.2 22.7
15:55 1019 30.09 848 25.04 12.5 54.5 29 -5 23
16:00 1019 30.09 848 25.04 12.7 54.8 29 -4.8 23.3
16:05 1019 30.09 848 25.04 12.6 54.7 30 -4.4 24.1
16:10 1019 30.09 848 25.04 12.6 54.6 30 -4.7 23.6
16:15 1019 30.09 849 25.07 12.5 54.5 31 -4.1 24.6
16:20 1019 30.09 849 25.07 12.3 54.1 31 -4.5 23.9
16:25 1019 30.09 849 25.07 12.4 54.2 32 -3.8 25.1
16:30 1020 30.12 849 25.07 11.9 53.5 33 -3.8 25.1
16:35 1020 30.12 849 25.07 11.7 53.1 32 -4.2 24.4
16:40 1019 30.09 849 25.07 11.9 53.4 33 -4 24.8
16:45 1019 30.09 849 25.07 11.9 53.4 32 -4 24.7
16:50 1019 30.09 849 25.07 12.1 53.8 31 -4.3 24.2
16:55 1019 30.09 849 25.07 12.1 53.8 32 -4.1 24.5
17:00 1019 30.09 849 25.07 12.2 53.9 32 -3.8 25.1
17:05 1019 30.09 849 25.07 12.3 54.1 32 -3.7 25.3
17:10 1019 30.09 849 25.07 12.2 54 33 -3.7 25.4
17:15 1019 30.09 849 25.07 12.3 54.1 33 -3.5 25.7
17:20 1019 30.09 849 25.07 12.4 54.3 32 -3.7 25.3
17:25 1019 30.09 849 25.07 12.3 54.1 32 -4.1 24.7
17:30 1019 30.09 849 25.07 12.3 54.1 32 -3.9 25.1
17:35 1019 30.09 849 25.07 12.3 54.1 32 -3.9 25
17:40 1019 30.09 849 25.07 12.1 53.8 32 -3.9 24.9
17:45 1019 30.09 849 25.07 12 53.6 33 -3.8 25.2
17:50 1019 30.09 849 25.07 12 53.5 33 -3.7 25.4
17:55 1019 30.09 849 25.07 12 53.5 34 -3.5 25.7
18:00 1019 30.09 849 25.07 11.8 53.3 35 -3.2 26.2
18:05 1019 30.09 849 25.07 11.7 53 35 -3.2 26.2
18:10 1019 30.09 849 25.07 11.6 52.9 36 -3 26.5
18:15 1019 30.09 849 25.07 11.5 52.8 37 -2.8 27
18:20 1019 30.09 849 25.07 11.4 52.6 37 -2.7 27.2
18:25 1019 30.09 849 25.07 11.4 52.6 37 -2.7 27.2
18:30 1020 30.12 849 25.07 11.4 52.5 38 -2.5 27.5
18:35 1020 30.12 849 25.07 11.4 52.4 38 -2.4 27.6
18:40 1020 30.12 849 25.07 11.3 52.3 39 -2.3 27.9
18:45 1020 30.12 849 25.07 11.2 52.2 39 -2.3 27.9
18:50 1020 30.12 849 25.07 11.1 51.9 39 -2.2 28
18:55 1020 30.12 849 25.07 10.9 51.6 41 -1.9 28.6
19:00 1020 30.12 849 25.07 10.7 51.2 42 -1.8 28.8
19:05 1019 30.09 849 25.07 10.5 50.8 42 -1.9 28.6
19:10 1019 30.09 849 25.07 10.4 50.6 42 -1.9 28.6
19:15 1019 30.09 849 25.07 10.2 50.4 42 -2 28.3
19:20 1019 30.09 849 25.07 10.1 50.2 43 -2 28.5
19:25 1019 30.09 849 25.07 10 49.9 43 -1.9 28.7
19:30 1019 30.09 849 25.07 9.8 49.6 44 -1.8 28.7
19:35 1019 30.09 849 25.07 9.5 49.1 44 -2 28.5
19:40 1020 30.12 849 25.07 9.4 48.9 45 -2 28.4
19:45 1020 30.12 849 25.07 9.4 48.8 45 -2 28.3
19:50 1020 30.12 849 25.07 9.3 48.8 44 -2.2 28
19:55 1020 30.12 849 25.07 9.4 48.8 44 -2.2 28
20:00 1020 30.12 849 25.07 9.3 48.8 45 -2.1 28.2
20:05 1020 30.12 849 25.07 9.2 48.5 45 -2 28.4
20:10 1020 30.12 849 25.07 8.9 47.9 47 -1.8 28.7
20:15 1020 30.12 849 25.07 8.5 47.2 48 -1.8 28.7
20:20 1020 30.12 849 25.07 8 46.3 49 -2 28.3
20:25 1020 30.12 849 25.07 7.8 46 49 -2.3 27.9
20:30 1020 30.12 849 25.07 7.6 45.7 50 -2 28.3
20:35 1020 30.12 849 25.07 7.5 45.4 49 -2.4 27.7
20:40 1020 30.12 849 25.07 7.2 45 51 -2.3 27.9
20:45 1020 30.12 849 25.07 6.9 44.4 51 -2.6 27.4
20:50 1020 30.12 849 25.07 6.7 44.1 52 -2.5 27.6
20:55 1020 30.12 849 25.07 6.5 43.7 52 -2.7 27.1
21:00 1020 30.12 849 25.07 6.3 43.3 52 -2.7 27.1
21:05 1020 30.12 849 25.07 6.1 43 53 -2.8 26.9
21:10 1020 30.12 849 25.07 6.1 43 53 -2.8 26.9
21:15 1020 30.12 849 25.07 6.1 42.9 53 -2.8 27
21:20 1020 30.12 849 25.07 6.1 42.9 53 -2.8 27
21:25 1020 30.12 849 25.07 5.7 42.3 56 -2.4 27.7
21:30 1020 30.12 849 25.07 5.1 41.1 58 -2.5 27.5
21:35 1020 30.12 849 25.07 5 41.1 55 -3.2 26.3
21:40 1020 30.12 849 25.07 5.5 41.9 55 -2.8 27
21:45 1020 30.12 849 25.07 5.4 41.8 56 -2.7 27.2
21:50 1020 30.12 849 25.07 5.5 41.9 55 -2.9 26.8
21:55 1020 30.12 849 25.07 5.9 42.5 52 -3.2 26.2
22:00 1020 30.12 849 25.07 6 42.7 52 -3.1 26.5
22:05 1020 30.12 849 25.07 6 42.9 51 -3.2 26.2
22:10 1020 30.12 849 25.07 5.8 42.5 53 -3 26.6
22:15 1020 30.12 849 25.07 5.6 42 53 -3.2 26.3
22:20 1020 30.12 849 25.07 5.3 41.6 56 -2.8 26.9
22:25 1020 30.12 849 25.07 4.9 40.9 57 -2.8 26.9
22:30 1020 30.12 849 25.07 4.7 40.4 58 -2.9 26.8
22:35 1020 30.12 849 25.07 4.6 40.2 59 -2.8 26.9
22:40 1020 30.12 849 25.07 4.7 40.4 57 -3 26.6
22:45 1020 30.12 849 25.07 4.9 40.8 56 -3.1 26.4
22:50 1020 30.12 849 25.07 5.1 41.2 56 -2.9 26.8
22:55 1020 30.12 849 25.07 5.3 41.5 57 -2.7 27.2
23:00 1020 30.12 849 25.07 5.3 41.5 57 -2.6 27.3
23:05 1020 30.12 849 25.07 5.4 41.7 56 -2.7 27.2
23:10 1020 30.12 849 25.07 5.3 41.6 57 -2.5 27.5
23:15 1020 30.12 849 25.07 5.3 41.5 57 -2.5 27.4
23:20 1020 30.12 849 25.07 5.2 41.4 58 -2.4 27.6
23:25 1020 30.12 849 25.07 5.3 41.5 57 -2.5 27.4
23:30 1020 30.12 849 25.07 5.2 41.3 57 -2.6 27.4
23:35 1020 30.12 849 25.07 5.3 41.5 56 -2.7 27.1
23:40 1020 30.12 849 25.07 5.4 41.7 55 -2.9 26.8
23:45 1020 30.12 849 25.07 5.5 41.9 54 -3.1 26.4
23:50 1020 30.12 849 25.07 5.6 42.1 54 -3 26.5
23:55 1020 30.12 849 25.07 5.6 42 54 -3 26.6
24:00 1020 30.12 849 25.07 5.4 41.7 55 -3 26.5